Hovedside
METAR-TAF:

METAR-TAF

Lufthavner :

Šiauliai, Litauen

breddegrad: 55-53-38N, lengdegrad: 023-23-42E, høyde over havet: 135 m

Gjeldene værobservasjon

Denne rapporten ble laget for 14 minutter siden, klokken 01:20 UTC
Vind 7 kt fra Sør
Temperatur 0°C
Trykk 1004 hPa
Sikt: 1300 m
tåke

METAR: EYSA 110120Z AUTO 19007KT 1300NDV R14L/1100VP2000D FG VV002 M00/// Q1004 R14L/29//95

Tid: 03:34 (01:34 UTC)

Varsel

Denne rapporten ble laget for 2 timer og 29 minutter siden, klokken 23:05 UTC
Varsel gyldig fra 11. klokken 00 UTC til 11. klokken 09 UTC
Vind 4 kt fra skiftende retning
Sikt: 0600 m
i en høyde av 200 ft
underkjølt tåke
Midlertidig
fra 11. klokken 00 UTC til 11. klokken 09 UTC
Sikt: 1500 m
dis
Sannsynlighet 30% :
Midlertidig
fra 11. klokken 00 UTC til 11. klokken 06 UTC
(lett) frysende, duskregn

TAF: EYSA 102305Z 1100/1109 VRB04KT 0600 FZFG VV002 TEMPO 1100/1109 1500 BR PROB30 TEMPO 1100/1106 -FZDZ

Værobservasjoner og værvarsel for over 4000 flyplasser (METAR- og TAF-rapporter).

Tilgjengelige stasjoner er representert av de røde og gule prikkene på kartet.

Hold musepekeren over prikken for å se navnet på stasjonen.

Klikk så for å se værobservasjoner og -varsler.

For å forandre kartet kan du klikke på den grønne knappen med svart kryss for å zoome inn, på den grønne knappen med strek for å zoome ut, eller på de grønne pilene for å se tilstøtende kart.


METAR-TAF: